sensor_id;sensor_type;location;lat;lon;timestamp;P1;durP1;ratioP1;P2;durP2;ratioP2
82028;SDS011;71590;52.216;13.448;2023-07-20T00:03:51;8.70;;;7.90;;
82028;SDS011;71590;52.216;13.448;2023-07-20T00:08:55;8.47;;;7.70;;
82028;SDS011;71590;52.216;13.448;2023-07-20T00:13:56;8.90;;;8.00;;
82028;SDS011;71590;52.216;13.448;2023-07-20T00:18:57;9.37;;;8.37;;
82028;SDS011;71590;52.216;13.448;2023-07-20T00:23:58;10.37;;;9.37;;
82028;SDS011;71590;52.216;13.448;2023-07-20T00:28:59;10.70;;;9.60;;
82028;SDS011;71590;52.216;13.448;2023-07-20T00:34:00;9.93;;;9.00;;
82028;SDS011;71590;52.216;13.448;2023-07-20T00:39:01;10.83;;;9.83;;
82028;SDS011;71590;52.216;13.448;2023-07-20T00:44:03;11.23;;;10.13;;
82028;SDS011;71590;52.216;13.448;2023-07-20T00:49:04;11.50;;;10.27;;
82028;SDS011;71590;52.216;13.448;2023-07-20T00:54:06;11.53;;;10.43;;
82028;SDS011;71590;52.216;13.448;2023-07-20T00:59:09;12.40;;;11.20;;
82028;SDS011;71590;52.216;13.448;2023-07-20T01:04:11;13.50;;;12.20;;
82028;SDS011;71590;52.216;13.448;2023-07-20T01:09:19;13.87;;;12.30;;
82028;SDS011;71590;52.216;13.448;2023-07-20T01:14:20;15.73;;;11.90;;
82028;SDS011;71590;52.216;13.448;2023-07-20T01:19:22;13.87;;;12.03;;
82028;SDS011;71590;52.216;13.448;2023-07-20T01:34:47;14.70;;;12.63;;
82028;SDS011;71590;52.216;13.448;2023-07-20T01:39:49;20.37;;;11.90;;
82028;SDS011;71590;52.216;13.448;2023-07-20T01:44:50;13.87;;;11.93;;
82028;SDS011;71590;52.216;13.448;2023-07-20T01:49:57;12.53;;;10.47;;
82028;SDS011;71590;52.216;13.448;2023-07-20T01:54:58;13.67;;;12.47;;
82028;SDS011;71590;52.216;13.448;2023-07-20T01:59:59;14.37;;;12.90;;
82028;SDS011;71590;52.216;13.448;2023-07-20T02:05:00;13.90;;;12.63;;
82028;SDS011;71590;52.216;13.448;2023-07-20T02:10:01;17.53;;;14.97;;
82028;SDS011;71590;52.216;13.448;2023-07-20T02:15:02;16.23;;;14.37;;
82028;SDS011;71590;52.216;13.448;2023-07-20T02:20:04;18.50;;;16.53;;
82028;SDS011;71590;52.216;13.448;2023-07-20T02:25:08;16.77;;;14.17;;
82028;SDS011;71590;52.216;13.448;2023-07-20T02:30:09;20.07;;;16.03;;
82028;SDS011;71590;52.216;13.448;2023-07-20T02:35:11;17.37;;;15.57;;
82028;SDS011;71590;52.216;13.448;2023-07-20T02:40:13;14.43;;;13.00;;
82028;SDS011;71590;52.216;13.448;2023-07-20T02:45:14;12.37;;;11.00;;
82028;SDS011;71590;52.216;13.448;2023-07-20T02:50:15;13.13;;;11.23;;
82028;SDS011;71590;52.216;13.448;2023-07-20T02:55:16;12.60;;;10.83;;
82028;SDS011;71590;52.216;13.448;2023-07-20T03:00:17;12.50;;;11.30;;
82028;SDS011;71590;52.216;13.448;2023-07-20T03:05:19;12.77;;;10.23;;
82028;SDS011;71590;52.216;13.448;2023-07-20T03:10:20;11.87;;;10.27;;
82028;SDS011;71590;52.216;13.448;2023-07-20T03:15:21;12.60;;;9.77;;
82028;SDS011;71590;52.216;13.448;2023-07-20T03:20:22;15.13;;;11.10;;
82028;SDS011;71590;52.216;13.448;2023-07-20T03:25:23;15.90;;;11.33;;
82028;SDS011;71590;52.216;13.448;2023-07-20T03:30:24;15.37;;;11.80;;
82028;SDS011;71590;52.216;13.448;2023-07-20T03:35:26;15.40;;;12.40;;
82028;SDS011;71590;52.216;13.448;2023-07-20T03:40:27;16.67;;;13.17;;
82028;SDS011;71590;52.216;13.448;2023-07-20T03:45:27;15.63;;;14.13;;
82028;SDS011;71590;52.216;13.448;2023-07-20T03:50:28;18.10;;;15.33;;
82028;SDS011;71590;52.216;13.448;2023-07-20T03:55:30;18.90;;;16.77;;
82028;SDS011;71590;52.216;13.448;2023-07-20T04:00:31;19.00;;;16.93;;
82028;SDS011;71590;52.216;13.448;2023-07-20T04:05:32;21.33;;;19.03;;
82028;SDS011;71590;52.216;13.448;2023-07-20T04:10:33;22.03;;;19.73;;
82028;SDS011;71590;52.216;13.448;2023-07-20T04:15:34;24.83;;;21.00;;
82028;SDS011;71590;52.216;13.448;2023-07-20T04:20:35;23.47;;;21.03;;
82028;SDS011;71590;52.216;13.448;2023-07-20T04:25:36;24.03;;;21.60;;
82028;SDS011;71590;52.216;13.448;2023-07-20T04:30:39;21.23;;;18.83;;
82028;SDS011;71590;52.216;13.448;2023-07-20T04:35:45;20.17;;;17.73;;
82028;SDS011;71590;52.216;13.448;2023-07-20T04:40:48;20.20;;;18.10;;
82028;SDS011;71590;52.216;13.448;2023-07-20T04:45:50;19.30;;;17.30;;
82028;SDS011;71590;52.216;13.448;2023-07-20T04:50:51;19.40;;;17.40;;
82028;SDS011;71590;52.216;13.448;2023-07-20T04:55:52;17.13;;;15.43;;
82028;SDS011;71590;52.216;13.448;2023-07-20T05:00:55;17.13;;;15.33;;
82028;SDS011;71590;52.216;13.448;2023-07-20T05:05:57;18.17;;;16.07;;
82028;SDS011;71590;52.216;13.448;2023-07-20T05:10:59;17.33;;;15.70;;
82028;SDS011;71590;52.216;13.448;2023-07-20T05:16:00;17.37;;;15.77;;
82028;SDS011;71590;52.216;13.448;2023-07-20T05:21:01;18.10;;;16.20;;
82028;SDS011;71590;52.216;13.448;2023-07-20T05:26:02;17.10;;;15.43;;
82028;SDS011;71590;52.216;13.448;2023-07-20T05:31:03;17.17;;;15.47;;
82028;SDS011;71590;52.216;13.448;2023-07-20T05:36:05;16.77;;;15.20;;
82028;SDS011;71590;52.216;13.448;2023-07-20T05:41:06;16.90;;;15.20;;
82028;SDS011;71590;52.216;13.448;2023-07-20T05:46:10;17.17;;;15.30;;
82028;SDS011;71590;52.216;13.448;2023-07-20T05:51:11;15.70;;;14.20;;
82028;SDS011;71590;52.216;13.448;2023-07-20T05:56:13;15.70;;;14.20;;
82028;SDS011;71590;52.216;13.448;2023-07-20T06:01:14;15.97;;;13.77;;
82028;SDS011;71590;52.216;13.448;2023-07-20T06:06:15;14.43;;;13.23;;
82028;SDS011;71590;52.216;13.448;2023-07-20T06:11:16;14.70;;;13.37;;
82028;SDS011;71590;52.216;13.448;2023-07-20T06:16:17;15.50;;;13.90;;
82028;SDS011;71590;52.216;13.448;2023-07-20T06:21:18;13.73;;;11.93;;
82028;SDS011;71590;52.216;13.448;2023-07-20T06:26:19;14.13;;;12.77;;
82028;SDS011;71590;52.216;13.448;2023-07-20T06:31:21;14.03;;;12.77;;
82028;SDS011;71590;52.216;13.448;2023-07-20T06:36:22;12.83;;;11.63;;
82028;SDS011;71590;52.216;13.448;2023-07-20T06:41:23;12.97;;;11.77;;
82028;SDS011;71590;52.216;13.448;2023-07-20T06:46:24;11.67;;;10.60;;
82028;SDS011;71590;52.216;13.448;2023-07-20T06:51:26;12.10;;;11.13;;
82028;SDS011;71590;52.216;13.448;2023-07-20T06:56:27;12.70;;;11.40;;
82028;SDS011;71590;52.216;13.448;2023-07-20T07:01:28;10.97;;;10.00;;
82028;SDS011;71590;52.216;13.448;2023-07-20T07:06:29;11.70;;;10.50;;
82028;SDS011;71590;52.216;13.448;2023-07-20T07:11:30;11.53;;;10.33;;
82028;SDS011;71590;52.216;13.448;2023-07-20T07:16:31;11.23;;;10.33;;
82028;SDS011;71590;52.216;13.448;2023-07-20T07:21:32;10.97;;;9.67;;
82028;SDS011;71590;52.216;13.448;2023-07-20T07:26:33;14.33;;;9.67;;
82028;SDS011;71590;52.216;13.448;2023-07-20T07:31:34;9.20;;;7.93;;
82028;SDS011;71590;52.216;13.448;2023-07-20T07:36:38;5.20;;;4.70;;
82028;SDS011;71590;52.216;13.448;2023-07-20T07:41:39;4.33;;;4.00;;
82028;SDS011;71590;52.216;13.448;2023-07-20T07:46:40;4.53;;;3.50;;
82028;SDS011;71590;52.216;13.448;2023-07-20T07:51:41;5.27;;;2.70;;
82028;SDS011;71590;52.216;13.448;2023-07-20T07:56:42;4.13;;;2.67;;
82028;SDS011;71590;52.216;13.448;2023-07-20T08:01:44;2.63;;;2.27;;
82028;SDS011;71590;52.216;13.448;2023-07-20T08:06:45;2.73;;;2.07;;
82028;SDS011;71590;52.216;13.448;2023-07-20T08:11:46;2.57;;;2.17;;
82028;SDS011;71590;52.216;13.448;2023-07-20T08:16:48;2.33;;;2.13;;
82028;SDS011;71590;52.216;13.448;2023-07-20T08:21:49;2.43;;;2.23;;
82028;SDS011;71590;52.216;13.448;2023-07-20T08:26:50;2.33;;;1.70;;
82028;SDS011;71590;52.216;13.448;2023-07-20T08:31:51;1.67;;;1.57;;
82028;SDS011;71590;52.216;13.448;2023-07-20T08:36:52;1.60;;;1.50;;
82028;SDS011;71590;52.216;13.448;2023-07-20T08:41:53;1.43;;;1.40;;
82028;SDS011;71590;52.216;13.448;2023-07-20T08:46:55;1.23;;;1.20;;
82028;SDS011;71590;52.216;13.448;2023-07-20T08:51:57;1.40;;;1.40;;
82028;SDS011;71590;52.216;13.448;2023-07-20T08:56:59;6.60;;;1.50;;
82028;SDS011;71590;52.216;13.448;2023-07-20T09:02:02;1.93;;;1.40;;
82028;SDS011;71590;52.216;13.448;2023-07-20T09:07:03;2.23;;;1.50;;
82028;SDS011;71590;52.216;13.448;2023-07-20T09:12:04;1.53;;;1.40;;
82028;SDS011;71590;52.216;13.448;2023-07-20T09:17:05;2.63;;;1.80;;
82028;SDS011;71590;52.216;13.448;2023-07-20T09:22:06;2.10;;;1.60;;
82028;SDS011;71590;52.216;13.448;2023-07-20T09:27:07;1.60;;;1.50;;
82028;SDS011;71590;52.216;13.448;2023-07-20T09:32:09;1.40;;;1.30;;
82028;SDS011;71590;52.216;13.448;2023-07-20T09:37:10;1.87;;;1.50;;
82028;SDS011;71590;52.216;13.448;2023-07-20T09:42:12;1.87;;;1.57;;
82028;SDS011;71590;52.216;13.448;2023-07-20T09:47:13;1.73;;;1.50;;
82028;SDS011;71590;52.216;13.448;2023-07-20T09:52:22;2.40;;;1.90;;
82028;SDS011;71590;52.216;13.448;2023-07-20T09:57:23;1.70;;;1.60;;
82028;SDS011;71590;52.216;13.448;2023-07-20T10:02:25;1.70;;;1.60;;
82028;SDS011;71590;52.216;13.448;2023-07-20T10:07:26;2.40;;;1.60;;
82028;SDS011;71590;52.216;13.448;2023-07-20T10:12:28;1.50;;;1.40;;
82028;SDS011;71590;52.216;13.448;2023-07-20T10:17:29;1.97;;;1.30;;
82028;SDS011;71590;52.216;13.448;2023-07-20T10:22:33;1.50;;;1.40;;
82028;SDS011;71590;52.216;13.448;2023-07-20T10:27:35;1.43;;;1.33;;
82028;SDS011;71590;52.216;13.448;2023-07-20T10:32:36;1.57;;;1.30;;
82028;SDS011;71590;52.216;13.448;2023-07-20T10:42:49;1.97;;;1.37;;
82028;SDS011;71590;52.216;13.448;2023-07-20T10:47:50;2.07;;;1.50;;
82028;SDS011;71590;52.216;13.448;2023-07-20T10:53:04;2.70;;;1.50;;
82028;SDS011;71590;52.216;13.448;2023-07-20T10:58:09;1.30;;;1.30;;
82028;SDS011;71590;52.216;13.448;2023-07-20T11:03:10;1.40;;;1.30;;
82028;SDS011;71590;52.216;13.448;2023-07-20T11:08:40;1.00;;;0.90;;
82028;SDS011;71590;52.216;13.448;2023-07-20T11:13:57;0.95;;;0.95;;
82028;SDS011;71590;52.216;13.448;2023-07-20T11:18:58;1.17;;;1.07;;
82028;SDS011;71590;52.216;13.448;2023-07-20T11:23:59;1.10;;;1.02;;
82028;SDS011;71590;52.216;13.448;2023-07-20T11:29:03;1.25;;;1.15;;
82028;SDS011;71590;52.216;13.448;2023-07-20T11:34:04;1.75;;;1.10;;
82028;SDS011;71590;52.216;13.448;2023-07-20T11:39:05;1.42;;;1.30;;
82028;SDS011;71590;52.216;13.448;2023-07-20T11:44:07;1.30;;;1.05;;
82028;SDS011;71590;52.216;13.448;2023-07-20T11:49:13;1.23;;;1.13;;
82028;SDS011;71590;52.216;13.448;2023-07-20T11:54:14;1.00;;;1.00;;
82028;SDS011;71590;52.216;13.448;2023-07-20T11:59:18;1.90;;;1.23;;
82028;SDS011;71590;52.216;13.448;2023-07-20T12:04:19;1.30;;;1.20;;
82028;SDS011;71590;52.216;13.448;2023-07-20T12:09:23;2.17;;;1.20;;
82028;SDS011;71590;52.216;13.448;2023-07-20T12:14:25;1.23;;;0.90;;
82028;SDS011;71590;52.216;13.448;2023-07-20T12:19:26;1.75;;;1.00;;
82028;SDS011;71590;52.216;13.448;2023-07-20T12:24:27;1.20;;;1.10;;
82028;SDS011;71590;52.216;13.448;2023-07-20T12:29:28;0.90;;;0.90;;
82028;SDS011;71590;52.216;13.448;2023-07-20T12:34:29;0.88;;;0.88;;
82028;SDS011;71590;52.216;13.448;2023-07-20T12:39:30;1.00;;;1.00;;
82028;SDS011;71590;52.216;13.448;2023-07-20T12:44:31;2.28;;;1.15;;
82028;SDS011;71590;52.216;13.448;2023-07-20T12:49:32;1.20;;;1.10;;
82028;SDS011;71590;52.216;13.448;2023-07-20T12:54:33;0.93;;;0.90;;
82028;SDS011;71590;52.216;13.448;2023-07-20T12:59:36;0.90;;;0.90;;
82028;SDS011;71590;52.216;13.448;2023-07-20T13:04:37;1.00;;;1.00;;
82028;SDS011;71590;52.216;13.448;2023-07-20T13:09:38;0.93;;;0.93;;
82028;SDS011;71590;52.216;13.448;2023-07-20T13:14:39;1.03;;;1.03;;
82028;SDS011;71590;52.216;13.448;2023-07-20T13:19:40;2.67;;;0.93;;
82028;SDS011;71590;52.216;13.448;2023-07-20T13:24:41;1.13;;;0.95;;
82028;SDS011;71590;52.216;13.448;2023-07-20T13:29:43;0.93;;;0.93;;
82028;SDS011;71590;52.216;13.448;2023-07-20T13:34:44;1.23;;;0.90;;
82028;SDS011;71590;52.216;13.448;2023-07-20T13:39:45;0.90;;;0.90;;
82028;SDS011;71590;52.216;13.448;2023-07-20T13:44:46;0.70;;;0.70;;
82028;SDS011;71590;52.216;13.448;2023-07-20T13:49:47;0.90;;;0.90;;
82028;SDS011;71590;52.216;13.448;2023-07-20T13:54:48;1.85;;;0.98;;
82028;SDS011;71590;52.216;13.448;2023-07-20T13:59:49;0.90;;;0.90;;
82028;SDS011;71590;52.216;13.448;2023-07-20T14:04:50;1.15;;;1.15;;
82028;SDS011;71590;52.216;13.448;2023-07-20T14:09:52;1.17;;;1.02;;
82028;SDS011;71590;52.216;13.448;2023-07-20T14:14:54;2.05;;;1.30;;
82028;SDS011;71590;52.216;13.448;2023-07-20T14:19:56;2.42;;;1.30;;
82028;SDS011;71590;52.216;13.448;2023-07-20T14:24:57;2.15;;;1.20;;
82028;SDS011;71590;52.216;13.448;2023-07-20T14:29:59;1.10;;;1.10;;
82028;SDS011;71590;52.216;13.448;2023-07-20T14:35:02;1.55;;;1.10;;
82028;SDS011;71590;52.216;13.448;2023-07-20T14:40:04;1.85;;;1.10;;
82028;SDS011;71590;52.216;13.448;2023-07-20T14:45:05;1.02;;;1.02;;
82028;SDS011;71590;52.216;13.448;2023-07-20T14:50:07;0.88;;;0.88;;
82028;SDS011;71590;52.216;13.448;2023-07-20T14:55:08;0.93;;;0.93;;
82028;SDS011;71590;52.216;13.448;2023-07-20T15:00:09;1.17;;;1.10;;
82028;SDS011;71590;52.216;13.448;2023-07-20T15:05:10;1.35;;;1.10;;
82028;SDS011;71590;52.216;13.448;2023-07-20T15:10:11;1.30;;;1.20;;
82028;SDS011;71590;52.216;13.448;2023-07-20T15:15:15;2.42;;;1.00;;
82028;SDS011;71590;52.216;13.448;2023-07-20T15:20:17;1.42;;;1.00;;
82028;SDS011;71590;52.216;13.448;2023-07-20T15:25:18;1.33;;;1.20;;
82028;SDS011;71590;52.216;13.448;2023-07-20T15:30:19;1.10;;;1.10;;
82028;SDS011;71590;52.216;13.448;2023-07-20T15:35:20;1.23;;;1.00;;
82028;SDS011;71590;52.216;13.448;2023-07-20T15:40:21;1.90;;;1.08;;
82028;SDS011;71590;52.216;13.448;2023-07-20T15:45:22;1.48;;;1.30;;
82028;SDS011;71590;52.216;13.448;2023-07-20T15:50:23;1.00;;;1.00;;
82028;SDS011;71590;52.216;13.448;2023-07-20T15:55:24;1.35;;;1.25;;
82028;SDS011;71590;52.216;13.448;2023-07-20T16:00:25;1.05;;;1.00;;
82028;SDS011;71590;52.216;13.448;2023-07-20T16:05:26;1.05;;;0.90;;
82028;SDS011;71590;52.216;13.448;2023-07-20T16:10:27;1.45;;;1.02;;
82028;SDS011;71590;52.216;13.448;2023-07-20T16:15:30;1.02;;;0.93;;
82028;SDS011;71590;52.216;13.448;2023-07-20T16:20:31;1.67;;;1.20;;
82028;SDS011;71590;52.216;13.448;2023-07-20T16:25:32;0.98;;;0.95;;
82028;SDS011;71590;52.216;13.448;2023-07-20T16:30:33;0.90;;;0.90;;
82028;SDS011;71590;52.216;13.448;2023-07-20T16:35:38;1.10;;;1.00;;
82028;SDS011;71590;52.216;13.448;2023-07-20T16:40:39;1.65;;;1.33;;
82028;SDS011;71590;52.216;13.448;2023-07-20T16:45:40;1.65;;;1.00;;
82028;SDS011;71590;52.216;13.448;2023-07-20T16:50:43;1.42;;;1.20;;
82028;SDS011;71590;52.216;13.448;2023-07-20T16:55:47;1.15;;;1.08;;
82028;SDS011;71590;52.216;13.448;2023-07-20T17:00:51;2.17;;;1.30;;
82028;SDS011;71590;52.216;13.448;2023-07-20T17:05:52;1.42;;;1.27;;
82028;SDS011;71590;52.216;13.448;2023-07-20T17:10:53;1.65;;;1.10;;
82028;SDS011;71590;52.216;13.448;2023-07-20T17:15:54;2.72;;;1.20;;
82028;SDS011;71590;52.216;13.448;2023-07-20T17:20:55;1.38;;;1.20;;
82028;SDS011;71590;52.216;13.448;2023-07-20T17:25:57;0.80;;;0.80;;
82028;SDS011;71590;52.216;13.448;2023-07-20T17:30:58;0.95;;;0.95;;
82028;SDS011;71590;52.216;13.448;2023-07-20T17:35:59;1.20;;;1.20;;
82028;SDS011;71590;52.216;13.448;2023-07-20T17:41:00;2.88;;;1.27;;
82028;SDS011;71590;52.216;13.448;2023-07-20T17:46:01;1.63;;;1.10;;
82028;SDS011;71590;52.216;13.448;2023-07-20T17:51:02;1.67;;;1.17;;
82028;SDS011;71590;52.216;13.448;2023-07-20T17:56:03;4.00;;;1.13;;
82028;SDS011;71590;52.216;13.448;2023-07-20T18:01:08;2.25;;;1.08;;
82028;SDS011;71590;52.216;13.448;2023-07-20T18:06:09;1.55;;;1.13;;
82028;SDS011;71590;52.216;13.448;2023-07-20T18:11:10;1.83;;;1.60;;
82028;SDS011;71590;52.216;13.448;2023-07-20T18:16:11;2.05;;;1.80;;
82028;SDS011;71590;52.216;13.448;2023-07-20T18:21:13;1.40;;;1.30;;
82028;SDS011;71590;52.216;13.448;2023-07-20T18:26:14;3.38;;;1.58;;
82028;SDS011;71590;52.216;13.448;2023-07-20T18:31:15;2.17;;;1.40;;
82028;SDS011;71590;52.216;13.448;2023-07-20T18:36:16;2.10;;;1.40;;
82028;SDS011;71590;52.216;13.448;2023-07-20T18:41:17;3.03;;;1.50;;
82028;SDS011;71590;52.216;13.448;2023-07-20T18:46:22;5.03;;;1.40;;
82028;SDS011;71590;52.216;13.448;2023-07-20T18:51:23;3.53;;;2.25;;
82028;SDS011;71590;52.216;13.448;2023-07-20T18:56:24;3.50;;;1.60;;
82028;SDS011;71590;52.216;13.448;2023-07-20T19:01:25;2.63;;;1.60;;
82028;SDS011;71590;52.216;13.448;2023-07-20T19:06:28;2.33;;;1.65;;
82028;SDS011;71590;52.216;13.448;2023-07-20T19:11:28;3.55;;;1.88;;
82028;SDS011;71590;52.216;13.448;2023-07-20T19:16:29;4.22;;;1.48;;
82028;SDS011;71590;52.216;13.448;2023-07-20T19:21:30;3.10;;;1.80;;
82028;SDS011;71590;52.216;13.448;2023-07-20T19:26:32;3.03;;;1.93;;
82028;SDS011;71590;52.216;13.448;2023-07-20T19:31:32;1.73;;;1.60;;
82028;SDS011;71590;52.216;13.448;2023-07-20T19:36:34;2.33;;;1.40;;
82028;SDS011;71590;52.216;13.448;2023-07-20T19:41:35;1.50;;;1.30;;
82028;SDS011;71590;52.216;13.448;2023-07-20T19:46:37;2.40;;;1.47;;
82028;SDS011;71590;52.216;13.448;2023-07-20T19:51:38;3.00;;;1.80;;
82028;SDS011;71590;52.216;13.448;2023-07-20T19:56:39;2.57;;;1.50;;
82028;SDS011;71590;52.216;13.448;2023-07-20T20:01:40;3.90;;;1.30;;
82028;SDS011;71590;52.216;13.448;2023-07-20T20:06:41;2.60;;;1.33;;
82028;SDS011;71590;52.216;13.448;2023-07-20T20:11:43;4.50;;;1.90;;
82028;SDS011;71590;52.216;13.448;2023-07-20T20:16:45;3.53;;;1.47;;
82028;SDS011;71590;52.216;13.448;2023-07-20T20:21:46;4.23;;;3.17;;
82028;SDS011;71590;52.216;13.448;2023-07-20T20:26:47;35.47;;;27.17;;
82028;SDS011;71590;52.216;13.448;2023-07-20T20:31:48;29.60;;;21.03;;
82028;SDS011;71590;52.216;13.448;2023-07-20T20:36:49;12.50;;;8.63;;
82028;SDS011;71590;52.216;13.448;2023-07-20T20:41:51;18.00;;;13.90;;
82028;SDS011;71590;52.216;13.448;2023-07-20T20:46:54;30.57;;;23.43;;
82028;SDS011;71590;52.216;13.448;2023-07-20T20:52:00;18.50;;;13.60;;
82028;SDS011;71590;52.216;13.448;2023-07-20T20:57:01;13.90;;;9.47;;
82028;SDS011;71590;52.216;13.448;2023-07-20T21:02:03;8.70;;;4.90;;
82028;SDS011;71590;52.216;13.448;2023-07-20T21:07:04;9.83;;;3.30;;
82028;SDS011;71590;52.216;13.448;2023-07-20T21:12:05;7.23;;;4.80;;
82028;SDS011;71590;52.216;13.448;2023-07-20T21:17:07;11.73;;;8.47;;
82028;SDS011;71590;52.216;13.448;2023-07-20T21:22:08;11.20;;;6.93;;
82028;SDS011;71590;52.216;13.448;2023-07-20T21:27:09;5.10;;;4.60;;
82028;SDS011;71590;52.216;13.448;2023-07-20T21:32:10;6.17;;;3.93;;
82028;SDS011;71590;52.216;13.448;2023-07-20T21:37:11;8.80;;;3.93;;
82028;SDS011;71590;52.216;13.448;2023-07-20T21:42:12;7.53;;;4.10;;
82028;SDS011;71590;52.216;13.448;2023-07-20T21:47:13;7.40;;;3.47;;
82028;SDS011;71590;52.216;13.448;2023-07-20T21:52:14;3.80;;;3.03;;
82028;SDS011;71590;52.216;13.448;2023-07-20T21:57:15;5.00;;;2.43;;
82028;SDS011;71590;52.216;13.448;2023-07-20T22:02:16;3.93;;;2.77;;
82028;SDS011;71590;52.216;13.448;2023-07-20T22:07:17;2.80;;;2.50;;
82028;SDS011;71590;52.216;13.448;2023-07-20T22:12:19;5.03;;;2.10;;
82028;SDS011;71590;52.216;13.448;2023-07-20T22:17:20;4.27;;;2.17;;
82028;SDS011;71590;52.216;13.448;2023-07-20T22:22:21;6.83;;;4.20;;
82028;SDS011;71590;52.216;13.448;2023-07-20T22:27:22;12.73;;;10.00;;
82028;SDS011;71590;52.216;13.448;2023-07-20T22:32:23;4.03;;;3.63;;
82028;SDS011;71590;52.216;13.448;2023-07-20T22:37:24;5.40;;;2.30;;
82028;SDS011;71590;52.216;13.448;2023-07-20T22:42:25;4.10;;;2.50;;
82028;SDS011;71590;52.216;13.448;2023-07-20T22:47:26;3.43;;;3.00;;
82028;SDS011;71590;52.216;13.448;2023-07-20T22:52:27;4.10;;;2.70;;
82028;SDS011;71590;52.216;13.448;2023-07-20T22:57:28;5.73;;;2.47;;
82028;SDS011;71590;52.216;13.448;2023-07-20T23:02:29;4.13;;;2.20;;
82028;SDS011;71590;52.216;13.448;2023-07-20T23:07:30;3.30;;;2.10;;
82028;SDS011;71590;52.216;13.448;2023-07-20T23:12:31;5.13;;;2.40;;
82028;SDS011;71590;52.216;13.448;2023-07-20T23:17:32;2.67;;;2.20;;
82028;SDS011;71590;52.216;13.448;2023-07-20T23:22:33;3.07;;;2.07;;
82028;SDS011;71590;52.216;13.448;2023-07-20T23:27:34;2.10;;;1.90;;
82028;SDS011;71590;52.216;13.448;2023-07-20T23:32:35;3.40;;;2.33;;
82028;SDS011;71590;52.216;13.448;2023-07-20T23:37:36;4.13;;;2.63;;
82028;SDS011;71590;52.216;13.448;2023-07-20T23:42:38;4.13;;;2.83;;
82028;SDS011;71590;52.216;13.448;2023-07-20T23:47:39;5.07;;;2.80;;
82028;SDS011;71590;52.216;13.448;2023-07-20T23:52:40;4.63;;;2.23;;
82028;SDS011;71590;52.216;13.448;2023-07-20T23:57:42;4.03;;;2.63;;
